sensor_id;sensor_type;location;lat;lon;timestamp;P1;durP1;ratioP1;P2;durP2;ratioP2
49548;SDS011;35450;44.518;7.466;2023-07-13T00:01:28;56.20;;;37.35;;
49548;SDS011;35450;44.518;7.466;2023-07-13T00:04:32;59.97;;;36.00;;
49548;SDS011;35450;44.518;7.466;2023-07-13T00:07:36;61.55;;;37.85;;
49548;SDS011;35450;44.518;7.466;2023-07-13T00:10:41;58.80;;;36.05;;
49548;SDS011;35450;44.518;7.466;2023-07-13T00:13:46;60.90;;;37.13;;
49548;SDS011;35450;44.518;7.466;2023-07-13T00:16:50;59.85;;;35.47;;
49548;SDS011;35450;44.518;7.466;2023-07-13T00:19:55;52.17;;;35.15;;
49548;SDS011;35450;44.518;7.466;2023-07-13T00:23:00;54.38;;;35.20;;
49548;SDS011;35450;44.518;7.466;2023-07-13T00:26:04;55.03;;;38.22;;
49548;SDS011;35450;44.518;7.466;2023-07-13T00:29:09;64.78;;;39.65;;
49548;SDS011;35450;44.518;7.466;2023-07-13T00:32:13;63.65;;;43.60;;
49548;SDS011;35450;44.518;7.466;2023-07-13T00:35:17;70.28;;;41.15;;
49548;SDS011;35450;44.518;7.466;2023-07-13T00:38:22;66.32;;;41.65;;
49548;SDS011;35450;44.518;7.466;2023-07-13T00:41:26;71.50;;;43.42;;
49548;SDS011;35450;44.518;7.466;2023-07-13T00:44:30;56.92;;;40.15;;
49548;SDS011;35450;44.518;7.466;2023-07-13T00:47:34;78.93;;;38.67;;
49548;SDS011;35450;44.518;7.466;2023-07-13T00:50:39;60.22;;;38.80;;
49548;SDS011;35450;44.518;7.466;2023-07-13T00:53:44;48.75;;;35.97;;
49548;SDS011;35450;44.518;7.466;2023-07-13T00:56:49;60.22;;;37.47;;
49548;SDS011;35450;44.518;7.466;2023-07-13T00:59:58;64.18;;;35.72;;
49548;SDS011;35450;44.518;7.466;2023-07-13T01:03:09;54.55;;;32.20;;
49548;SDS011;35450;44.518;7.466;2023-07-13T01:06:13;50.92;;;32.33;;
49548;SDS011;35450;44.518;7.466;2023-07-13T01:09:19;47.03;;;26.55;;
49548;SDS011;35450;44.518;7.466;2023-07-13T01:12:23;48.95;;;27.08;;
49548;SDS011;35450;44.518;7.466;2023-07-13T01:15:41;40.60;;;25.33;;
49548;SDS011;35450;44.518;7.466;2023-07-13T01:18:48;43.00;;;28.83;;
49548;SDS011;35450;44.518;7.466;2023-07-13T01:21:53;41.70;;;28.02;;
49548;SDS011;35450;44.518;7.466;2023-07-13T01:24:57;43.55;;;26.85;;
49548;SDS011;35450;44.518;7.466;2023-07-13T01:28:02;33.72;;;23.42;;
49548;SDS011;35450;44.518;7.466;2023-07-13T01:31:09;45.03;;;25.13;;
49548;SDS011;35450;44.518;7.466;2023-07-13T01:34:13;43.42;;;26.17;;
49548;SDS011;35450;44.518;7.466;2023-07-13T01:37:17;37.72;;;23.38;;
49548;SDS011;35450;44.518;7.466;2023-07-13T01:40:22;40.95;;;23.25;;
49548;SDS011;35450;44.518;7.466;2023-07-13T01:43:26;26.42;;;14.48;;
49548;SDS011;35450;44.518;7.466;2023-07-13T01:46:30;23.52;;;13.00;;
49548;SDS011;35450;44.518;7.466;2023-07-13T01:49:34;21.88;;;12.98;;
49548;SDS011;35450;44.518;7.466;2023-07-13T01:52:39;21.95;;;11.48;;
49548;SDS011;35450;44.518;7.466;2023-07-13T01:55:43;31.35;;;12.82;;
49548;SDS011;35450;44.518;7.466;2023-07-13T01:58:47;32.95;;;13.18;;
49548;SDS011;35450;44.518;7.466;2023-07-13T02:01:51;30.88;;;12.98;;
49548;SDS011;35450;44.518;7.466;2023-07-13T02:04:55;27.38;;;12.77;;
49548;SDS011;35450;44.518;7.466;2023-07-13T02:07:59;30.13;;;12.35;;
49548;SDS011;35450;44.518;7.466;2023-07-13T02:11:03;25.55;;;12.18;;
49548;SDS011;35450;44.518;7.466;2023-07-13T02:14:07;18.50;;;10.95;;
49548;SDS011;35450;44.518;7.466;2023-07-13T02:17:12;22.15;;;11.93;;
49548;SDS011;35450;44.518;7.466;2023-07-13T02:20:16;23.42;;;12.25;;
49548;SDS011;35450;44.518;7.466;2023-07-13T02:23:20;25.42;;;13.52;;
49548;SDS011;35450;44.518;7.466;2023-07-13T02:26:25;19.95;;;12.40;;
49548;SDS011;35450;44.518;7.466;2023-07-13T02:29:29;27.33;;;13.35;;
49548;SDS011;35450;44.518;7.466;2023-07-13T02:32:33;25.02;;;11.98;;
49548;SDS011;35450;44.518;7.466;2023-07-13T02:35:37;22.33;;;13.32;;
49548;SDS011;35450;44.518;7.466;2023-07-13T02:38:41;25.58;;;14.68;;
49548;SDS011;35450;44.518;7.466;2023-07-13T02:41:45;28.45;;;14.63;;
49548;SDS011;35450;44.518;7.466;2023-07-13T02:44:50;22.80;;;13.30;;
49548;SDS011;35450;44.518;7.466;2023-07-13T02:47:55;25.60;;;13.27;;
49548;SDS011;35450;44.518;7.466;2023-07-13T02:50:59;23.13;;;14.07;;
49548;SDS011;35450;44.518;7.466;2023-07-13T02:54:03;27.55;;;13.40;;
49548;SDS011;35450;44.518;7.466;2023-07-13T02:57:08;20.45;;;12.98;;
49548;SDS011;35450;44.518;7.466;2023-07-13T03:00:12;27.90;;;14.20;;
49548;SDS011;35450;44.518;7.466;2023-07-13T03:03:16;23.30;;;13.13;;
49548;SDS011;35450;44.518;7.466;2023-07-13T03:06:21;15.70;;;10.90;;
49548;SDS011;35450;44.518;7.466;2023-07-13T03:09:30;17.05;;;10.52;;
49548;SDS011;35450;44.518;7.466;2023-07-13T03:12:37;19.25;;;10.70;;
49548;SDS011;35450;44.518;7.466;2023-07-13T03:15:48;21.17;;;11.50;;
49548;SDS011;35450;44.518;7.466;2023-07-13T03:18:52;20.85;;;12.50;;
49548;SDS011;35450;44.518;7.466;2023-07-13T03:21:56;24.48;;;14.02;;
49548;SDS011;35450;44.518;7.466;2023-07-13T03:25:00;27.65;;;13.55;;
49548;SDS011;35450;44.518;7.466;2023-07-13T03:28:05;22.52;;;13.27;;
49548;SDS011;35450;44.518;7.466;2023-07-13T03:31:11;21.55;;;12.25;;
49548;SDS011;35450;44.518;7.466;2023-07-13T03:34:18;23.83;;;13.63;;
49548;SDS011;35450;44.518;7.466;2023-07-13T03:37:22;22.73;;;13.25;;
49548;SDS011;35450;44.518;7.466;2023-07-13T03:45:24;26.05;;;15.93;;
49548;SDS011;35450;44.518;7.466;2023-07-13T03:48:29;30.98;;;18.45;;
49548;SDS011;35450;44.518;7.466;2023-07-13T03:51:33;25.42;;;18.52;;
49548;SDS011;35450;44.518;7.466;2023-07-13T03:54:41;27.83;;;17.35;;
49548;SDS011;35450;44.518;7.466;2023-07-13T03:57:45;25.05;;;15.23;;
49548;SDS011;35450;44.518;7.466;2023-07-13T04:00:50;24.40;;;13.38;;
49548;SDS011;35450;44.518;7.466;2023-07-13T04:03:54;21.55;;;10.40;;
49548;SDS011;35450;44.518;7.466;2023-07-13T04:07:00;18.73;;;8.57;;
49548;SDS011;35450;44.518;7.466;2023-07-13T04:10:05;11.82;;;6.47;;
49548;SDS011;35450;44.518;7.466;2023-07-13T04:13:09;22.00;;;6.05;;
49548;SDS011;35450;44.518;7.466;2023-07-13T04:16:15;14.60;;;6.20;;
49548;SDS011;35450;44.518;7.466;2023-07-13T04:19:20;16.63;;;6.97;;
49548;SDS011;35450;44.518;7.466;2023-07-13T04:22:24;18.67;;;8.43;;
49548;SDS011;35450;44.518;7.466;2023-07-13T04:25:28;30.17;;;11.82;;
49548;SDS011;35450;44.518;7.466;2023-07-13T04:28:33;24.17;;;12.90;;
49548;SDS011;35450;44.518;7.466;2023-07-13T04:31:37;25.27;;;12.48;;
49548;SDS011;35450;44.518;7.466;2023-07-13T04:34:41;24.38;;;11.10;;
49548;SDS011;35450;44.518;7.466;2023-07-13T04:37:45;25.42;;;10.40;;
49548;SDS011;35450;44.518;7.466;2023-07-13T04:40:58;24.33;;;9.70;;
49548;SDS011;35450;44.518;7.466;2023-07-13T04:44:09;20.88;;;9.60;;
49548;SDS011;35450;44.518;7.466;2023-07-13T04:47:13;22.02;;;10.85;;
49548;SDS011;35450;44.518;7.466;2023-07-13T04:50:17;28.65;;;12.55;;
49548;SDS011;35450;44.518;7.466;2023-07-13T04:53:27;24.55;;;14.02;;
49548;SDS011;35450;44.518;7.466;2023-07-13T04:56:32;30.70;;;13.77;;
49548;SDS011;35450;44.518;7.466;2023-07-13T04:59:36;28.35;;;14.23;;
49548;SDS011;35450;44.518;7.466;2023-07-13T05:02:42;28.08;;;15.60;;
49548;SDS011;35450;44.518;7.466;2023-07-13T05:05:54;34.25;;;17.15;;
49548;SDS011;35450;44.518;7.466;2023-07-13T05:09:00;25.85;;;17.73;;
49548;SDS011;35450;44.518;7.466;2023-07-13T05:12:04;29.08;;;17.77;;
49548;SDS011;35450;44.518;7.466;2023-07-13T05:15:09;46.15;;;19.95;;
49548;SDS011;35450;44.518;7.466;2023-07-13T05:18:13;32.58;;;19.08;;
49548;SDS011;35450;44.518;7.466;2023-07-13T05:21:17;27.95;;;16.85;;
49548;SDS011;35450;44.518;7.466;2023-07-13T05:24:21;30.30;;;16.67;;
49548;SDS011;35450;44.518;7.466;2023-07-13T05:27:25;28.90;;;16.95;;
49548;SDS011;35450;44.518;7.466;2023-07-13T05:30:28;16.63;;;13.18;;
49548;SDS011;35450;44.518;7.466;2023-07-13T05:33:33;26.17;;;12.60;;
49548;SDS011;35450;44.518;7.466;2023-07-13T05:36:37;28.35;;;14.10;;
49548;SDS011;35450;44.518;7.466;2023-07-13T05:39:41;25.70;;;11.30;;
49548;SDS011;35450;44.518;7.466;2023-07-13T05:42:44;21.13;;;9.82;;
49548;SDS011;35450;44.518;7.466;2023-07-13T05:45:48;20.75;;;10.43;;
49548;SDS011;35450;44.518;7.466;2023-07-13T05:48:54;16.55;;;8.32;;
49548;SDS011;35450;44.518;7.466;2023-07-13T05:51:58;8.77;;;6.25;;
49548;SDS011;35450;44.518;7.466;2023-07-13T05:55:02;19.17;;;7.18;;
49548;SDS011;35450;44.518;7.466;2023-07-13T05:58:07;19.08;;;6.25;;
49548;SDS011;35450;44.518;7.466;2023-07-13T06:01:12;16.08;;;5.25;;
49548;SDS011;35450;44.518;7.466;2023-07-13T06:04:17;15.38;;;5.40;;
49548;SDS011;35450;44.518;7.466;2023-07-13T06:07:22;21.45;;;5.35;;
49548;SDS011;35450;44.518;7.466;2023-07-13T06:10:26;18.95;;;4.78;;
49548;SDS011;35450;44.518;7.466;2023-07-13T06:13:30;21.73;;;3.95;;
49548;SDS011;35450;44.518;7.466;2023-07-13T06:16:34;14.45;;;3.85;;
49548;SDS011;35450;44.518;7.466;2023-07-13T06:19:38;14.20;;;4.35;;
49548;SDS011;35450;44.518;7.466;2023-07-13T06:22:42;14.52;;;3.70;;
49548;SDS011;35450;44.518;7.466;2023-07-13T06:25:46;10.35;;;4.07;;
49548;SDS011;35450;44.518;7.466;2023-07-13T06:28:50;16.02;;;4.70;;
49548;SDS011;35450;44.518;7.466;2023-07-13T06:31:56;17.60;;;4.22;;
49548;SDS011;35450;44.518;7.466;2023-07-13T06:35:00;18.92;;;6.20;;
49548;SDS011;35450;44.518;7.466;2023-07-13T06:38:04;22.58;;;5.32;;
49548;SDS011;35450;44.518;7.466;2023-07-13T06:41:08;13.15;;;4.18;;
49548;SDS011;35450;44.518;7.466;2023-07-13T06:44:12;22.15;;;4.97;;
49548;SDS011;35450;44.518;7.466;2023-07-13T06:47:16;15.70;;;4.65;;
49548;SDS011;35450;44.518;7.466;2023-07-13T06:50:20;16.75;;;5.03;;
49548;SDS011;35450;44.518;7.466;2023-07-13T06:53:24;14.65;;;5.20;;
49548;SDS011;35450;44.518;7.466;2023-07-13T06:56:28;15.15;;;5.03;;
49548;SDS011;35450;44.518;7.466;2023-07-13T06:59:33;15.48;;;4.93;;
49548;SDS011;35450;44.518;7.466;2023-07-13T07:02:36;16.20;;;4.97;;
49548;SDS011;35450;44.518;7.466;2023-07-13T07:05:40;15.65;;;4.22;;
49548;SDS011;35450;44.518;7.466;2023-07-13T07:08:45;16.25;;;4.80;;
49548;SDS011;35450;44.518;7.466;2023-07-13T07:11:49;15.32;;;5.97;;
49548;SDS011;35450;44.518;7.466;2023-07-13T07:14:54;20.08;;;5.30;;
49548;SDS011;35450;44.518;7.466;2023-07-13T07:17:58;19.30;;;6.30;;
49548;SDS011;35450;44.518;7.466;2023-07-13T07:21:02;23.38;;;5.82;;
49548;SDS011;35450;44.518;7.466;2023-07-13T07:24:08;23.48;;;6.20;;
49548;SDS011;35450;44.518;7.466;2023-07-13T07:27:11;18.88;;;5.15;;
49548;SDS011;35450;44.518;7.466;2023-07-13T07:30:15;23.40;;;5.35;;
49548;SDS011;35450;44.518;7.466;2023-07-13T07:33:19;16.88;;;5.25;;
49548;SDS011;35450;44.518;7.466;2023-07-13T07:36:24;26.50;;;5.97;;
49548;SDS011;35450;44.518;7.466;2023-07-13T07:39:28;41.13;;;8.65;;
49548;SDS011;35450;44.518;7.466;2023-07-13T07:42:33;18.48;;;6.05;;
49548;SDS011;35450;44.518;7.466;2023-07-13T07:45:37;22.83;;;5.70;;
49548;SDS011;35450;44.518;7.466;2023-07-13T07:48:42;22.75;;;6.07;;
49548;SDS011;35450;44.518;7.466;2023-07-13T07:51:47;19.58;;;5.38;;
49548;SDS011;35450;44.518;7.466;2023-07-13T07:54:51;17.00;;;5.50;;
49548;SDS011;35450;44.518;7.466;2023-07-13T07:57:56;17.80;;;5.57;;
49548;SDS011;35450;44.518;7.466;2023-07-13T08:01:04;30.23;;;6.10;;
49548;SDS011;35450;44.518;7.466;2023-07-13T08:04:09;19.30;;;5.45;;
49548;SDS011;35450;44.518;7.466;2023-07-13T08:07:13;19.88;;;5.70;;
49548;SDS011;35450;44.518;7.466;2023-07-13T08:10:17;17.02;;;5.88;;
49548;SDS011;35450;44.518;7.466;2023-07-13T08:13:21;22.52;;;6.03;;
49548;SDS011;35450;44.518;7.466;2023-07-13T08:16:26;15.88;;;6.05;;
49548;SDS011;35450;44.518;7.466;2023-07-13T08:19:30;22.50;;;7.10;;
49548;SDS011;35450;44.518;7.466;2023-07-13T08:22:34;12.23;;;4.88;;
49548;SDS011;35450;44.518;7.466;2023-07-13T08:25:38;12.38;;;5.38;;
49548;SDS011;35450;44.518;7.466;2023-07-13T08:28:42;11.25;;;5.25;;
49548;SDS011;35450;44.518;7.466;2023-07-13T08:31:47;11.20;;;4.60;;
49548;SDS011;35450;44.518;7.466;2023-07-13T08:35:00;15.63;;;6.13;;
49548;SDS011;35450;44.518;7.466;2023-07-13T08:38:04;23.23;;;5.80;;
49548;SDS011;35450;44.518;7.466;2023-07-13T08:41:10;17.33;;;5.50;;
49548;SDS011;35450;44.518;7.466;2023-07-13T08:44:20;14.98;;;5.38;;
49548;SDS011;35450;44.518;7.466;2023-07-13T08:47:44;12.48;;;5.85;;
49548;SDS011;35450;44.518;7.466;2023-07-13T08:54:02;20.55;;;7.55;;
49548;SDS011;35450;44.518;7.466;2023-07-13T09:00:17;14.55;;;5.82;;
49548;SDS011;35450;44.518;7.466;2023-07-13T09:03:22;17.30;;;7.80;;
49548;SDS011;35450;44.518;7.466;2023-07-13T09:06:31;17.40;;;7.43;;
49548;SDS011;35450;44.518;7.466;2023-07-13T09:10:03;18.02;;;7.53;;
49548;SDS011;35450;44.518;7.466;2023-07-13T09:16:44;37.92;;;7.93;;
49548;SDS011;35450;44.518;7.466;2023-07-13T09:19:54;14.00;;;7.60;;
49548;SDS011;35450;44.518;7.466;2023-07-13T09:23:14;18.40;;;7.35;;
49548;SDS011;35450;44.518;7.466;2023-07-13T09:26:22;13.18;;;7.00;;
49548;SDS011;35450;44.518;7.466;2023-07-13T09:29:29;21.67;;;8.98;;
49548;SDS011;35450;44.518;7.466;2023-07-13T09:32:38;20.13;;;8.07;;
49548;SDS011;35450;44.518;7.466;2023-07-13T09:35:48;14.00;;;7.32;;
49548;SDS011;35450;44.518;7.466;2023-07-13T09:39:03;17.73;;;8.10;;
49548;SDS011;35450;44.518;7.466;2023-07-13T09:45:17;15.45;;;7.75;;
49548;SDS011;35450;44.518;7.466;2023-07-13T09:48:34;16.95;;;7.97;;
49548;SDS011;35450;44.518;7.466;2023-07-13T09:51:40;15.13;;;7.75;;
49548;SDS011;35450;44.518;7.466;2023-07-13T09:54:46;20.65;;;8.55;;
49548;SDS011;35450;44.518;7.466;2023-07-13T09:57:51;18.95;;;9.18;;
49548;SDS011;35450;44.518;7.466;2023-07-13T10:01:00;25.83;;;8.20;;
49548;SDS011;35450;44.518;7.466;2023-07-13T10:04:12;26.35;;;10.98;;
49548;SDS011;35450;44.518;7.466;2023-07-13T10:07:17;26.33;;;9.52;;
49548;SDS011;35450;44.518;7.466;2023-07-13T10:10:22;23.00;;;8.85;;
49548;SDS011;35450;44.518;7.466;2023-07-13T10:16:40;21.35;;;8.65;;
49548;SDS011;35450;44.518;7.466;2023-07-13T10:19:46;27.15;;;9.68;;
49548;SDS011;35450;44.518;7.466;2023-07-13T10:22:56;19.60;;;10.02;;
49548;SDS011;35450;44.518;7.466;2023-07-13T10:26:11;18.48;;;9.13;;
49548;SDS011;35450;44.518;7.466;2023-07-13T10:29:21;22.73;;;8.10;;
49548;SDS011;35450;44.518;7.466;2023-07-13T10:32:28;21.92;;;8.40;;
49548;SDS011;35450;44.518;7.466;2023-07-13T10:35:32;16.58;;;7.80;;
49548;SDS011;35450;44.518;7.466;2023-07-13T10:38:37;17.55;;;7.60;;
49548;SDS011;35450;44.518;7.466;2023-07-13T10:41:42;19.85;;;7.93;;
49548;SDS011;35450;44.518;7.466;2023-07-13T10:44:49;21.45;;;8.50;;
49548;SDS011;35450;44.518;7.466;2023-07-13T10:47:53;29.15;;;8.35;;
49548;SDS011;35450;44.518;7.466;2023-07-13T10:50:59;21.15;;;7.93;;
49548;SDS011;35450;44.518;7.466;2023-07-13T10:57:32;23.70;;;7.82;;
49548;SDS011;35450;44.518;7.466;2023-07-13T11:00:47;29.02;;;7.80;;
49548;SDS011;35450;44.518;7.466;2023-07-13T11:04:15;30.52;;;7.72;;
49548;SDS011;35450;44.518;7.466;2023-07-13T11:07:25;16.20;;;6.32;;
49548;SDS011;35450;44.518;7.466;2023-07-13T11:10:53;29.17;;;6.85;;
49548;SDS011;35450;44.518;7.466;2023-07-13T11:13:58;26.88;;;7.25;;
49548;SDS011;35450;44.518;7.466;2023-07-13T11:20:35;23.38;;;6.75;;
49548;SDS011;35450;44.518;7.466;2023-07-13T11:23:45;19.00;;;6.93;;
49548;SDS011;35450;44.518;7.466;2023-07-13T11:27:14;21.60;;;6.65;;
49548;SDS011;35450;44.518;7.466;2023-07-13T11:30:32;35.70;;;7.50;;
49548;SDS011;35450;44.518;7.466;2023-07-13T11:36:44;16.27;;;6.75;;
49548;SDS011;35450;44.518;7.466;2023-07-13T11:39:48;33.03;;;8.23;;
49548;SDS011;35450;44.518;7.466;2023-07-13T11:43:01;16.40;;;6.38;;
49548;SDS011;35450;44.518;7.466;2023-07-13T11:46:20;30.33;;;6.93;;
49548;SDS011;35450;44.518;7.466;2023-07-13T11:49:28;24.65;;;7.28;;
49548;SDS011;35450;44.518;7.466;2023-07-13T11:52:35;25.20;;;6.68;;
49548;SDS011;35450;44.518;7.466;2023-07-13T11:55:40;17.60;;;6.60;;
49548;SDS011;35450;44.518;7.466;2023-07-13T11:58:48;20.98;;;5.72;;
49548;SDS011;35450;44.518;7.466;2023-07-13T12:02:01;24.10;;;7.15;;
49548;SDS011;35450;44.518;7.466;2023-07-13T12:05:08;24.58;;;6.70;;
49548;SDS011;35450;44.518;7.466;2023-07-13T12:08:15;19.88;;;7.38;;
49548;SDS011;35450;44.518;7.466;2023-07-13T12:11:21;24.48;;;6.30;;
49548;SDS011;35450;44.518;7.466;2023-07-13T12:14:25;27.02;;;6.20;;
49548;SDS011;35450;44.518;7.466;2023-07-13T12:17:29;19.75;;;6.15;;
49548;SDS011;35450;44.518;7.466;2023-07-13T12:20:35;15.50;;;5.88;;
49548;SDS011;35450;44.518;7.466;2023-07-13T12:23:43;21.48;;;5.90;;
49548;SDS011;35450;44.518;7.466;2023-07-13T12:26:50;21.23;;;5.75;;
49548;SDS011;35450;44.518;7.466;2023-07-13T12:33:10;23.30;;;6.88;;
49548;SDS011;35450;44.518;7.466;2023-07-13T12:36:15;27.88;;;7.22;;
49548;SDS011;35450;44.518;7.466;2023-07-13T12:42:39;23.80;;;7.43;;
49548;SDS011;35450;44.518;7.466;2023-07-13T12:46:04;19.75;;;6.68;;
49548;SDS011;35450;44.518;7.466;2023-07-13T12:49:18;16.08;;;5.50;;
49548;SDS011;35450;44.518;7.466;2023-07-13T12:52:32;19.08;;;6.05;;
49548;SDS011;35450;44.518;7.466;2023-07-13T12:55:49;18.63;;;6.32;;
49548;SDS011;35450;44.518;7.466;2023-07-13T12:59:01;20.95;;;5.50;;
49548;SDS011;35450;44.518;7.466;2023-07-13T13:05:41;16.38;;;5.95;;
49548;SDS011;35450;44.518;7.466;2023-07-13T13:08:46;14.23;;;5.43;;
49548;SDS011;35450;44.518;7.466;2023-07-13T13:11:55;20.45;;;6.82;;
49548;SDS011;35450;44.518;7.466;2023-07-13T13:14:59;16.00;;;5.32;;
49548;SDS011;35450;44.518;7.466;2023-07-13T13:18:03;23.70;;;6.00;;
49548;SDS011;35450;44.518;7.466;2023-07-13T13:21:11;29.63;;;6.30;;
49548;SDS011;35450;44.518;7.466;2023-07-13T13:24:17;14.63;;;5.53;;
49548;SDS011;35450;44.518;7.466;2023-07-13T13:27:27;18.88;;;6.20;;
49548;SDS011;35450;44.518;7.466;2023-07-13T13:30:32;28.73;;;6.05;;
49548;SDS011;35450;44.518;7.466;2023-07-13T13:33:36;26.63;;;6.85;;
49548;SDS011;35450;44.518;7.466;2023-07-13T13:36:41;27.83;;;5.55;;
49548;SDS011;35450;44.518;7.466;2023-07-13T13:39:46;21.30;;;5.45;;
49548;SDS011;35450;44.518;7.466;2023-07-13T13:42:50;21.80;;;5.13;;
49548;SDS011;35450;44.518;7.466;2023-07-13T13:45:57;18.58;;;5.03;;
49548;SDS011;35450;44.518;7.466;2023-07-13T13:49:03;20.63;;;4.95;;
49548;SDS011;35450;44.518;7.466;2023-07-13T13:52:08;24.33;;;5.97;;
49548;SDS011;35450;44.518;7.466;2023-07-13T13:55:14;19.27;;;4.85;;
49548;SDS011;35450;44.518;7.466;2023-07-13T13:58:21;21.80;;;4.78;;
49548;SDS011;35450;44.518;7.466;2023-07-13T14:01:30;19.38;;;5.95;;
49548;SDS011;35450;44.518;7.466;2023-07-13T14:04:35;17.52;;;4.90;;
49548;SDS011;35450;44.518;7.466;2023-07-13T14:07:39;26.38;;;5.85;;
49548;SDS011;35450;44.518;7.466;2023-07-13T14:10:43;21.50;;;5.00;;
49548;SDS011;35450;44.518;7.466;2023-07-13T14:13:51;16.10;;;5.30;;
49548;SDS011;35450;44.518;7.466;2023-07-13T14:17:01;19.92;;;5.28;;
49548;SDS011;35450;44.518;7.466;2023-07-13T14:20:09;20.75;;;6.47;;
49548;SDS011;35450;44.518;7.466;2023-07-13T14:23:15;29.55;;;5.63;;
49548;SDS011;35450;44.518;7.466;2023-07-13T14:26:25;22.83;;;5.72;;
49548;SDS011;35450;44.518;7.466;2023-07-13T14:29:30;14.10;;;4.70;;
49548;SDS011;35450;44.518;7.466;2023-07-13T14:32:36;16.05;;;5.28;;
49548;SDS011;35450;44.518;7.466;2023-07-13T14:35:41;31.38;;;5.80;;
49548;SDS011;35450;44.518;7.466;2023-07-13T14:38:45;21.98;;;5.38;;
49548;SDS011;35450;44.518;7.466;2023-07-13T14:41:50;16.98;;;4.88;;
49548;SDS011;35450;44.518;7.466;2023-07-13T14:44:55;31.48;;;5.72;;
49548;SDS011;35450;44.518;7.466;2023-07-13T14:47:59;27.95;;;5.95;;
49548;SDS011;35450;44.518;7.466;2023-07-13T14:51:03;22.10;;;5.65;;
49548;SDS011;35450;44.518;7.466;2023-07-13T14:54:07;24.45;;;6.50;;
49548;SDS011;35450;44.518;7.466;2023-07-13T14:57:14;18.85;;;4.97;;
49548;SDS011;35450;44.518;7.466;2023-07-13T15:00:19;16.73;;;5.35;;
49548;SDS011;35450;44.518;7.466;2023-07-13T15:03:25;19.55;;;4.65;;
49548;SDS011;35450;44.518;7.466;2023-07-13T15:06:29;15.98;;;4.47;;
49548;SDS011;35450;44.518;7.466;2023-07-13T15:09:34;24.98;;;4.97;;
49548;SDS011;35450;44.518;7.466;2023-07-13T15:12:38;14.68;;;5.00;;
49548;SDS011;35450;44.518;7.466;2023-07-13T15:15:43;16.92;;;5.05;;
49548;SDS011;35450;44.518;7.466;2023-07-13T15:18:49;17.80;;;4.68;;
49548;SDS011;35450;44.518;7.466;2023-07-13T15:21:55;17.95;;;5.43;;
49548;SDS011;35450;44.518;7.466;2023-07-13T15:25:03;10.93;;;4.45;;
49548;SDS011;35450;44.518;7.466;2023-07-13T15:28:09;12.30;;;4.53;;
49548;SDS011;35450;44.518;7.466;2023-07-13T15:34:23;14.93;;;4.65;;
49548;SDS011;35450;44.518;7.466;2023-07-13T15:37:29;19.08;;;4.03;;
49548;SDS011;35450;44.518;7.466;2023-07-13T15:40:33;19.05;;;4.72;;
49548;SDS011;35450;44.518;7.466;2023-07-13T15:43:37;18.65;;;4.75;;
49548;SDS011;35450;44.518;7.466;2023-07-13T15:46:42;20.48;;;4.38;;
49548;SDS011;35450;44.518;7.466;2023-07-13T15:49:46;20.58;;;4.68;;
49548;SDS011;35450;44.518;7.466;2023-07-13T15:52:50;18.58;;;4.95;;
49548;SDS011;35450;44.518;7.466;2023-07-13T15:55:56;17.33;;;5.10;;
49548;SDS011;35450;44.518;7.466;2023-07-13T15:59:01;22.02;;;6.85;;
49548;SDS011;35450;44.518;7.466;2023-07-13T16:02:11;15.00;;;5.05;;
49548;SDS011;35450;44.518;7.466;2023-07-13T16:05:23;17.48;;;4.63;;
49548;SDS011;35450;44.518;7.466;2023-07-13T16:08:28;17.17;;;5.10;;
49548;SDS011;35450;44.518;7.466;2023-07-13T16:11:35;16.05;;;5.55;;
49548;SDS011;35450;44.518;7.466;2023-07-13T16:14:41;17.02;;;5.00;;
49548;SDS011;35450;44.518;7.466;2023-07-13T16:17:46;22.92;;;5.75;;
49548;SDS011;35450;44.518;7.466;2023-07-13T16:20:51;22.83;;;4.95;;
49548;SDS011;35450;44.518;7.466;2023-07-13T16:23:57;14.27;;;4.93;;
49548;SDS011;35450;44.518;7.466;2023-07-13T16:27:02;15.48;;;5.50;;
49548;SDS011;35450;44.518;7.466;2023-07-13T16:30:18;15.40;;;4.28;;
49548;SDS011;35450;44.518;7.466;2023-07-13T16:33:24;16.45;;;4.90;;
49548;SDS011;35450;44.518;7.466;2023-07-13T16:36:28;26.35;;;5.15;;
49548;SDS011;35450;44.518;7.466;2023-07-13T16:39:34;16.60;;;5.32;;
49548;SDS011;35450;44.518;7.466;2023-07-13T16:42:38;24.05;;;6.05;;
49548;SDS011;35450;44.518;7.466;2023-07-13T16:45:42;25.27;;;5.32;;
49548;SDS011;35450;44.518;7.466;2023-07-13T16:48:47;25.67;;;6.22;;
49548;SDS011;35450;44.518;7.466;2023-07-13T16:51:52;22.45;;;4.93;;
49548;SDS011;35450;44.518;7.466;2023-07-13T16:54:56;22.23;;;6.03;;
49548;SDS011;35450;44.518;7.466;2023-07-13T16:58:00;16.35;;;5.05;;
49548;SDS011;35450;44.518;7.466;2023-07-13T17:01:06;22.70;;;5.80;;
49548;SDS011;35450;44.518;7.466;2023-07-13T17:04:11;25.75;;;6.45;;
49548;SDS011;35450;44.518;7.466;2023-07-13T17:07:17;30.90;;;6.65;;
49548;SDS011;35450;44.518;7.466;2023-07-13T17:10:22;21.75;;;6.50;;
49548;SDS011;35450;44.518;7.466;2023-07-13T17:13:27;15.02;;;5.15;;
49548;SDS011;35450;44.518;7.466;2023-07-13T17:16:32;20.02;;;5.47;;
49548;SDS011;35450;44.518;7.466;2023-07-13T17:19:38;19.70;;;6.05;;
49548;SDS011;35450;44.518;7.466;2023-07-13T17:22:42;21.20;;;5.47;;
49548;SDS011;35450;44.518;7.466;2023-07-13T17:25:48;17.95;;;5.13;;
49548;SDS011;35450;44.518;7.466;2023-07-13T17:28:55;32.55;;;6.15;;
49548;SDS011;35450;44.518;7.466;2023-07-13T17:31:59;30.02;;;6.10;;
49548;SDS011;35450;44.518;7.466;2023-07-13T17:35:08;20.02;;;5.53;;
49548;SDS011;35450;44.518;7.466;2023-07-13T17:38:34;22.80;;;5.65;;
49548;SDS011;35450;44.518;7.466;2023-07-13T17:41:43;21.38;;;5.53;;
49548;SDS011;35450;44.518;7.466;2023-07-13T17:44:48;22.92;;;4.90;;
49548;SDS011;35450;44.518;7.466;2023-07-13T17:47:52;13.82;;;5.18;;
49548;SDS011;35450;44.518;7.466;2023-07-13T17:50:57;17.52;;;5.20;;
49548;SDS011;35450;44.518;7.466;2023-07-13T17:54:04;22.77;;;6.60;;
49548;SDS011;35450;44.518;7.466;2023-07-13T17:57:15;19.95;;;5.70;;
49548;SDS011;35450;44.518;7.466;2023-07-13T18:00:20;21.42;;;5.63;;
49548;SDS011;35450;44.518;7.466;2023-07-13T18:03:31;19.48;;;5.47;;
49548;SDS011;35450;44.518;7.466;2023-07-13T18:06:38;16.85;;;5.65;;
49548;SDS011;35450;44.518;7.466;2023-07-13T18:09:45;18.40;;;5.53;;
49548;SDS011;35450;44.518;7.466;2023-07-13T18:12:53;18.10;;;5.00;;
49548;SDS011;35450;44.518;7.466;2023-07-13T18:15:56;26.80;;;6.20;;
49548;SDS011;35450;44.518;7.466;2023-07-13T18:19:02;20.35;;;5.57;;
49548;SDS011;35450;44.518;7.466;2023-07-13T18:22:12;21.75;;;6.47;;
49548;SDS011;35450;44.518;7.466;2023-07-13T18:25:18;20.67;;;6.07;;
49548;SDS011;35450;44.518;7.466;2023-07-13T18:28:25;18.13;;;6.25;;
49548;SDS011;35450;44.518;7.466;2023-07-13T18:31:30;29.95;;;6.75;;
49548;SDS011;35450;44.518;7.466;2023-07-13T18:34:38;16.17;;;5.45;;
49548;SDS011;35450;44.518;7.466;2023-07-13T18:37:45;19.27;;;4.82;;
49548;SDS011;35450;44.518;7.466;2023-07-13T18:40:49;26.70;;;5.90;;
49548;SDS011;35450;44.518;7.466;2023-07-13T18:43:54;14.63;;;5.68;;
49548;SDS011;35450;44.518;7.466;2023-07-13T18:46:58;59.22;;;8.38;;
49548;SDS011;35450;44.518;7.466;2023-07-13T18:50:02;28.58;;;6.75;;
49548;SDS011;35450;44.518;7.466;2023-07-13T18:53:15;28.40;;;6.28;;
49548;SDS011;35450;44.518;7.466;2023-07-13T18:56:21;20.02;;;5.72;;
49548;SDS011;35450;44.518;7.466;2023-07-13T18:59:25;21.27;;;6.47;;
49548;SDS011;35450;44.518;7.466;2023-07-13T19:02:29;18.55;;;5.70;;
49548;SDS011;35450;44.518;7.466;2023-07-13T19:05:34;23.27;;;6.03;;